Time;durP1;ratioP1;P1;durP2;ratioP2;P2;SDS_P1;SDS_P2;PMS_P1;PMS_P2;Temp;Humidity;BMP_temperature;BMP_pressure;BME280_temperature;BME280_humidity;BME280_pressure;Samples;Min_cycle;Max_cycle;Signal;HPM_P1;HPM_P2
2023/10/16 00:01:38;;;;;;;4.97;2.60;;;4.30;99.90;;;;;;5053637;28;20180;-74
2023/10/16 00:04:05;;;;;;;2.63;2.20;;;4.30;99.90;;;;;;5054812;28;20207;-75
2023/10/16 00:06:31;;;;;;;4.23;2.10;;;4.20;99.90;;;;;;5055193;28;20608;-74
2023/10/16 00:09:15;;;;;;;5.53;2.23;;;4.10;99.90;;;;;;5053574;28;20168;-75
2023/10/16 00:11:42;;;;;;;3.93;2.07;;;4.10;99.90;;;;;;5052013;28;20175;-75
2023/10/16 00:14:23;;;;;;;3.43;2.47;;;4.10;99.90;;;;;;5040870;28;20214;-74
2023/10/16 00:16:50;;;;;;;2.87;2.33;;;4.10;99.90;;;;;;5034902;28;20206;-75
2023/10/16 00:19:16;;;;;;;4.00;2.60;;;4.10;99.90;;;;;;5033534;28;20189;-75
2023/10/16 00:21:44;;;;;;;4.60;1.97;;;4.00;99.90;;;;;;5034656;28;20271;-75
2023/10/16 00:24:11;;;;;;;3.17;2.40;;;4.10;99.90;;;;;;5035101;28;20219;-75
2023/10/16 00:26:36;;;;;;;5.67;2.70;;;4.10;99.90;;;;;;5033303;28;20176;-75
2023/10/16 00:29:24;;;;;;;5.17;2.73;;;4.10;99.90;;;;;;5044162;28;20214;-75
2023/10/16 00:31:58;;;;;;;3.50;2.40;;;4.00;99.90;;;;;;5052990;28;20570;-75
2023/10/16 00:34:24;;;;;;;4.07;2.93;;;4.00;99.90;;;;;;5054388;28;20239;-74
2023/10/16 00:36:54;;;;;;;4.87;2.50;;;4.00;99.90;;;;;;5052985;28;20214;-75
2023/10/16 00:39:20;;;;;;;3.63;2.53;;;4.00;99.90;;;;;;5052947;28;20184;-74
2023/10/16 00:41:46;;;;;;;4.80;2.67;;;3.90;99.90;;;;;;5052788;28;20233;-74
2023/10/16 00:44:19;;;;;;;4.97;2.63;;;3.80;99.90;;;;;;5053100;28;20176;-75
2023/10/16 00:46:48;;;;;;;4.30;2.60;;;3.80;99.90;;;;;;5037073;28;20203;-75
2023/10/16 00:49:15;;;;;;;5.93;2.90;;;3.80;99.90;;;;;;5053399;28;20525;-75
2023/10/16 00:51:41;;;;;;;3.80;2.70;;;3.80;99.90;;;;;;5052762;28;20176;-75
2023/10/16 00:54:18;;;;;;;4.40;2.67;;;3.90;99.90;;;;;;5054155;28;20730;-74
2023/10/16 00:56:51;;;;;;;4.17;2.43;;;3.90;99.90;;;;;;5052585;28;20186;-75
2023/10/16 00:59:17;;;;;;;7.57;3.30;;;3.90;99.90;;;;;;5045802;28;20210;-73
2023/10/16 01:01:46;;;;;;;5.23;2.60;;;3.90;99.90;;;;;;5050933;28;20671;-75
2023/10/16 01:04:17;;;;;;;5.47;3.47;;;3.90;99.90;;;;;;5037116;28;20187;-75
2023/10/16 01:06:44;;;;;;;6.93;3.07;;;3.90;99.90;;;;;;5046464;28;20191;-75
2023/10/16 01:09:12;;;;;;;8.07;3.00;;;3.80;99.90;;;;;;5034005;28;20176;-74
2023/10/16 01:11:38;;;;;;;4.53;2.73;;;3.90;99.90;;;;;;5032811;28;20208;-75
2023/10/16 01:14:06;;;;;;;6.77;2.97;;;3.80;99.90;;;;;;5033644;28;20227;-75
2023/10/16 01:16:33;;;;;;;7.27;2.97;;;3.70;99.90;;;;;;5041781;28;20183;-74
2023/10/16 01:19:01;;;;;;;4.83;2.70;;;3.80;99.90;;;;;;5053548;28;20179;-74
2023/10/16 01:21:28;;;;;;;4.83;2.70;;;3.70;99.90;;;;;;5053780;28;20543;-75
2023/10/16 01:23:55;;;;;;;3.60;2.73;;;3.70;99.90;;;;;;5052057;28;20214;-75
2023/10/16 01:26:21;;;;;;;4.90;3.00;;;3.60;99.90;;;;;;5053219;28;20693;-74
2023/10/16 01:28:46;;;;;;;4.53;2.87;;;3.60;99.90;;;;;;5053344;28;20254;-74
2023/10/16 01:31:13;;;;;;;4.07;3.20;;;3.60;99.90;;;;;;5051821;28;20230;-74
2023/10/16 01:33:42;;;;;;;5.47;3.13;;;3.60;99.90;;;;;;5051400;28;20257;-75
2023/10/16 01:36:07;;;;;;;6.60;3.00;;;3.60;99.90;;;;;;5046667;28;20242;-75
2023/10/16 01:38:34;;;;;;;5.97;3.33;;;3.60;99.90;;;;;;5033550;28;20180;-74
2023/10/16 01:41:04;;;;;;;5.00;3.07;;;3.60;99.90;;;;;;5033285;28;20581;-74
2023/10/16 01:43:31;;;;;;;7.33;3.57;;;3.60;99.90;;;;;;5033221;28;20296;-75
2023/10/16 01:46:15;;;;;;;7.37;3.20;;;3.60;99.90;;;;;;5033065;28;20657;-75
2023/10/16 01:48:47;;;;;;;9.70;3.33;;;3.60;99.90;;;;;;5050534;28;20188;-74
2023/10/16 01:51:18;;;;;;;3.97;2.77;;;3.60;99.90;;;;;;5052997;28;20156;-74
2023/10/16 01:53:44;;;;;;;4.70;3.30;;;3.60;99.90;;;;;;5051551;28;20200;-74
2023/10/16 01:56:13;;;;;;;4.67;3.30;;;3.60;99.90;;;;;;5052819;28;20286;-74
2023/10/16 01:58:41;;;;;;;4.97;3.37;;;3.60;99.90;;;;;;5052781;28;20182;-74
2023/10/16 02:01:14;;;;;;;6.80;3.17;;;3.50;99.90;;;;;;5052776;28;20224;-74
2023/10/16 02:03:45;;;;;;;6.17;3.23;;;3.60;99.90;;;;;;5047034;28;20207;-74
2023/10/16 02:06:14;;;;;;;7.20;3.27;;;3.60;99.90;;;;;;5033012;28;20243;-74
2023/10/16 02:08:40;;;;;;;3.70;2.80;;;3.50;99.90;;;;;;5032723;28;20196;-74
2023/10/16 02:11:07;;;;;;;5.10;3.13;;;3.60;99.90;;;;;;5032686;28;20184;-74
2023/10/16 02:13:36;;;;;;;5.10;3.43;;;3.50;99.90;;;;;;5032561;28;20204;-75
2023/10/16 02:16:06;;;;;;;3.70;3.00;;;3.50;99.90;;;;;;5032588;28;20211;-74
2023/10/16 02:18:40;;;;;;;5.17;2.83;;;3.50;99.90;;;;;;5031287;28;20180;-75
2023/10/16 02:21:11;;;;;;;5.50;3.07;;;3.40;99.90;;;;;;5032380;28;20184;-75
2023/10/16 02:23:43;;;;;;;6.03;2.93;;;3.40;99.90;;;;;;5031010;28;20211;-74
2023/10/16 02:26:09;;;;;;;4.20;2.97;;;3.30;99.90;;;;;;5032459;28;20264;-74
2023/10/16 02:28:40;;;;;;;4.17;3.23;;;3.30;99.90;;;;;;5031079;28;20176;-75
2023/10/16 02:31:13;;;;;;;4.60;3.10;;;3.40;99.90;;;;;;5032298;28;20647;-74
2023/10/16 02:33:46;;;;;;;5.27;3.33;;;3.30;99.90;;;;;;5032321;28;20199;-74
2023/10/16 02:36:15;;;;;;;6.30;3.17;;;3.30;99.90;;;;;;5031255;28;20611;-74
2023/10/16 02:38:44;;;;;;;6.27;3.20;;;3.30;99.90;;;;;;5048516;28;20240;-74
2023/10/16 02:41:10;;;;;;;6.80;3.23;;;3.20;99.90;;;;;;5050158;28;20191;-74
2023/10/16 02:43:41;;;;;;;5.90;3.53;;;3.20;99.90;;;;;;5050313;28;20230;-74
2023/10/16 02:46:10;;;;;;;5.47;3.73;;;3.10;99.90;;;;;;5041519;28;20184;-75
2023/10/16 02:48:36;;;;;;;7.07;4.27;;;3.10;99.90;;;;;;5030744;28;20636;-74
2023/10/16 02:51:02;;;;;;;5.40;3.50;;;3.20;99.90;;;;;;5030623;28;20171;-74
2023/10/16 02:53:30;;;;;;;5.10;3.80;;;3.20;99.90;;;;;;5034727;28;20226;-75
2023/10/16 02:56:05;;;;;;;4.77;3.13;;;3.20;99.90;;;;;;5052177;28;20175;-74
2023/10/16 02:58:31;;;;;;;4.90;3.57;;;3.10;99.90;;;;;;5052192;28;20183;-74
2023/10/16 03:00:57;;;;;;;5.80;3.90;;;3.10;99.90;;;;;;5052333;28;20187;-75
2023/10/16 03:03:24;;;;;;;7.70;3.50;;;3.10;99.90;;;;;;5051686;28;20306;-74
2023/10/16 03:05:51;;;;;;;6.80;3.97;;;3.10;99.90;;;;;;5050530;28;20172;-74
2023/10/16 03:08:29;;;;;;;6.43;3.90;;;3.10;99.90;;;;;;5041621;28;20180;-74
2023/10/16 03:11:05;;;;;;;4.53;3.40;;;3.10;99.90;;;;;;5044123;28;20198;-74
2023/10/16 03:13:37;;;;;;;4.53;3.60;;;3.00;99.90;;;;;;5051736;28;20191;-74
2023/10/16 03:16:10;;;;;;;6.63;3.70;;;3.10;99.90;;;;;;5050472;28;20171;-75
2023/10/16 03:18:42;;;;;;;7.17;3.20;;;3.00;99.90;;;;;;5051846;28;20152;-75
2023/10/16 03:21:27;;;;;;;5.40;3.20;;;3.00;99.90;;;;;;5048845;28;20179;-75
2023/10/16 03:23:52;;;;;;;6.63;3.77;;;3.00;99.90;;;;;;5050294;28;20233;-74
2023/10/16 03:26:28;;;;;;;3.90;3.30;;;3.00;99.90;;;;;;5050433;28;20176;-74
2023/10/16 03:28:56;;;;;;;4.93;3.30;;;3.00;99.90;;;;;;5051994;28;20159;-75
2023/10/16 03:31:23;;;;;;;4.37;3.07;;;3.00;99.90;;;;;;5051779;28;20226;-74
2023/10/16 03:33:49;;;;;;;4.40;3.10;;;3.00;99.90;;;;;;5050031;28;20223;-74
2023/10/16 03:36:15;;;;;;;8.10;3.30;;;3.00;99.90;;;;;;5051800;28;20199;-74
2023/10/16 03:38:41;;;;;;;3.40;2.77;;;3.00;99.90;;;;;;5052018;28;20218;-74
2023/10/16 03:43:58;;;;;;;5.30;3.03;;;3.00;99.90;;;;;;5051573;28;20702;-74
2023/10/16 03:46:27;;;;;;;4.50;3.00;;;3.00;99.90;;;;;;5051737;28;20243;-74
2023/10/16 03:48:54;;;;;;;5.13;2.80;;;3.00;99.90;;;;;;5052387;28;20198;-74
2023/10/16 03:51:21;;;;;;;3.77;2.70;;;3.00;99.90;;;;;;5044891;28;20689;-74
2023/10/16 03:53:47;;;;;;;4.23;3.03;;;2.90;99.90;;;;;;5035140;28;20213;-75
2023/10/16 03:56:13;;;;;;;5.53;3.23;;;2.90;99.90;;;;;;5035381;28;20271;-73
2023/10/16 03:58:43;;;;;;;4.67;3.23;;;2.90;99.90;;;;;;5035287;28;20172;-74
2023/10/16 04:01:10;;;;;;;4.70;3.07;;;2.90;99.90;;;;;;5033746;28;20665;-74
2023/10/16 04:03:46;;;;;;;4.67;3.40;;;2.90;99.90;;;;;;5034882;28;20200;-75
2023/10/16 04:06:22;;;;;;;5.40;3.03;;;2.90;99.90;;;;;;5035343;28;20157;-74
2023/10/16 04:08:51;;;;;;;11.47;3.40;;;2.90;99.90;;;;;;5047102;28;20183;-74
2023/10/16 04:11:19;;;;;;;5.70;4.00;;;2.90;99.90;;;;;;5053437;28;20178;-73
2023/10/16 04:13:48;;;;;;;4.67;3.73;;;2.90;99.90;;;;;;5053186;28;20210;-74
2023/10/16 04:19:34;;;;;;;5.10;3.47;;;2.80;99.90;;;;;;5055666;28;20287;-74
2023/10/16 04:24:45;;;;;;;6.00;4.07;;;2.70;99.90;;;;;;5051698;28;20234;-75
2023/10/16 04:29:46;;;;;;;5.70;3.63;;;2.80;99.90;;;;;;5034904;28;20192;-74
2023/10/16 04:32:29;;;;;;;6.43;4.17;;;2.90;99.90;;;;;;5033324;28;20243;-74
2023/10/16 04:34:56;;;;;;;6.03;4.10;;;2.90;99.90;;;;;;5034587;28;20676;-74
2023/10/16 04:47:42;;;;;;;5.43;3.87;;;2.80;99.90;;;;;;5054701;28;20158;-74
2023/10/16 04:50:13;;;;;;;8.17;4.57;;;2.80;99.90;;;;;;5054466;28;20164;-74
2023/10/16 05:03:45;;;;;;;4.83;4.07;;;3.00;99.90;;;;;;5034261;28;20291;-74
2023/10/16 05:06:28;;;;;;;7.03;4.90;;;3.00;99.90;;;;;;5034030;28;20156;-74
2023/10/16 05:17:06;;;;;;;8.37;4.57;;;3.00;99.90;;;;;;5054040;28;20203;-73
2023/10/16 05:22:02;;;;;;;7.30;5.37;;;3.00;99.90;;;;;;5053515;28;20645;-74
2023/10/16 06:14:20;;;;;;;9.60;6.20;;;3.20;99.90;;;;;;5052880;28;20591;-74
2023/10/16 06:16:53;;;;;;;8.53;6.93;;;3.20;99.90;;;;;;5052815;28;20167;-74
2023/10/16 06:19:22;;;;;;;9.77;6.77;;;3.20;99.90;;;;;;5046577;28;20187;-74
2023/10/16 06:21:54;;;;;;;9.67;6.90;;;3.20;99.90;;;;;;5031365;28;20510;-74
2023/10/16 06:24:35;;;;;;;9.67;6.77;;;3.20;99.90;;;;;;5033113;28;20603;-73
2023/10/16 06:27:09;;;;;;;11.17;7.40;;;3.20;99.90;;;;;;5032798;28;20613;-74
2023/10/16 06:29:51;;;;;;;9.33;7.10;;;3.20;99.90;;;;;;5037151;28;20175;-74
2023/10/16 06:32:49;;;;;;;12.10;7.53;;;3.30;99.90;;;;;;5051084;28;20207;-74
2023/10/16 06:35:16;;;;;;;13.77;7.30;;;3.30;99.90;;;;;;5052078;28;20187;-74
2023/10/16 06:37:51;;;;;;;7.73;6.43;;;3.30;99.90;;;;;;5052374;28;20213;-74
2023/10/16 06:40:18;;;;;;;10.23;7.40;;;3.40;99.90;;;;;;5051197;28;20186;-74
2023/10/16 06:42:45;;;;;;;11.33;7.53;;;3.40;99.90;;;;;;5052214;28;20218;-73
2023/10/16 06:45:19;;;;;;;9.93;7.57;;;3.50;99.90;;;;;;5052476;28;20255;-74
2023/10/16 06:47:48;;;;;;;10.07;7.80;;;3.50;99.90;;;;;;5052283;28;20557;-74
2023/10/16 06:52:53;;;;;;;14.23;7.90;;;3.60;99.90;;;;;;5032684;28;20230;-74
2023/10/16 06:55:21;;;;;;;9.73;7.90;;;3.70;99.90;;;;;;5030919;28;20176;-74
2023/10/16 06:57:47;;;;;;;11.43;8.57;;;3.70;99.90;;;;;;5032176;28;20168;-74
2023/10/16 07:00:22;;;;;;;10.47;6.87;;;3.80;99.90;;;;;;5041247;28;20668;-74
2023/10/16 07:02:54;;;;;;;13.47;8.20;;;3.80;99.90;;;;;;5052096;28;20231;-74
2023/10/16 07:05:23;;;;;;;13.00;8.83;;;3.90;99.90;;;;;;5050879;28;20167;-74
2023/10/16 07:07:49;;;;;;;16.30;9.30;;;4.00;99.90;;;;;;5050004;28;20179;-75
2023/10/16 07:10:15;;;;;;;12.57;9.80;;;4.00;99.90;;;;;;5051979;28;20163;-75
2023/10/16 07:15:38;;;;;;;15.00;10.17;;;4.20;99.90;;;;;;5039939;28;20195;-74
2023/10/16 07:18:04;;;;;;;16.40;10.70;;;4.30;99.90;;;;;;5049774;28;20191;-75
2023/10/16 07:20:31;;;;;;;17.20;10.97;;;4.30;99.90;;;;;;5051857;28;20241;-74
2023/10/16 07:23:00;;;;;;;16.67;10.60;;;4.40;99.90;;;;;;5051817;28;20215;-75
2023/10/16 07:25:37;;;;;;;16.27;11.10;;;4.50;99.90;;;;;;5055449;28;20635;-74
2023/10/16 07:28:08;;;;;;;17.33;12.10;;;4.60;99.90;;;;;;5047636;28;20179;-75
2023/10/16 07:30:37;;;;;;;16.43;11.83;;;4.70;99.90;;;;;;5035736;28;20192;-75
2023/10/16 07:33:03;;;;;;;18.80;12.20;;;4.70;99.90;;;;;;5034329;28;20258;-75
2023/10/16 07:35:28;;;;;;;22.73;13.27;;;4.80;99.90;;;;;;5036005;28;20176;-75
2023/10/16 07:37:54;;;;;;;16.60;12.27;;;4.90;99.90;;;;;;5041342;28;20655;-75
2023/10/16 07:40:20;;;;;;;21.33;13.13;;;4.90;99.90;;;;;;5055759;28;20167;-75
2023/10/16 07:42:47;;;;;;;18.80;13.40;;;5.00;99.90;;;;;;5055465;28;20208;-75
2023/10/16 07:45:13;;;;;;;20.83;13.80;;;5.00;99.90;;;;;;5054150;28;20183;-75
2023/10/16 07:47:38;;;;;;;23.50;13.57;;;5.10;99.90;;;;;;5053613;28;20187;-75
2023/10/16 07:50:04;;;;;;;19.53;13.53;;;5.20;99.90;;;;;;5054086;28;20175;-75
2023/10/16 07:52:30;;;;;;;22.07;15.03;;;5.20;99.90;;;;;;5055747;28;20198;-75
2023/10/16 07:54:56;;;;;;;23.37;14.53;;;5.30;99.90;;;;;;5055806;28;20175;-74
2023/10/16 07:57:24;;;;;;;24.80;15.33;;;5.40;99.90;;;;;;5054103;28;20173;-75
2023/10/16 07:59:57;;;;;;;23.07;14.97;;;5.40;99.90;;;;;;5055701;28;20514;-74
2023/10/16 08:02:22;;;;;;;26.97;16.60;;;5.50;99.90;;;;;;5054229;28;20229;-75
2023/10/16 08:04:51;;;;;;;28.23;16.83;;;5.60;99.90;;;;;;5053825;28;20651;-75
2023/10/16 08:07:18;;;;;;;27.10;17.37;;;5.60;99.90;;;;;;5054721;28;20195;-75
2023/10/16 08:12:20;;;;;;;26.07;16.57;;;5.70;99.90;;;;;;5054896;28;20210;-75
2023/10/16 08:14:46;;;;;;;28.60;17.27;;;5.80;99.90;;;;;;5053725;28;20647;-75
2023/10/16 08:17:17;;;;;;;27.90;17.80;;;5.90;99.90;;;;;;5054928;28;20164;-75
2023/10/16 08:19:46;;;;;;;32.53;19.03;;;5.90;99.90;;;;;;5034320;28;20789;-75
2023/10/16 08:22:15;;;;;;;26.53;17.10;;;6.00;99.90;;;;;;5034662;28;20214;-75
2023/10/16 08:24:57;;;;;;;27.83;16.63;;;6.00;99.90;;;;;;5033464;28;20203;-75
2023/10/16 08:30:17;;;;;;;28.13;16.17;;;6.10;99.90;;;;;;5034912;28;20282;-74
2023/10/16 08:35:17;;;;;;;24.47;15.93;;;6.20;99.90;;;;;;5033804;28;20222;-75
2023/10/16 08:37:55;;;;;;;27.60;16.90;;;6.20;99.90;;;;;;5036234;28;20206;-74
2023/10/16 08:40:23;;;;;;;23.07;16.73;;;6.30;99.90;;;;;;5049925;28;20188;-74
2023/10/16 08:43:01;;;;;;;28.53;17.20;;;6.40;99.90;;;;;;5049668;28;20718;-74
2023/10/16 08:45:32;;;;;;;22.33;16.37;;;6.40;99.90;;;;;;5049872;28;20164;-74
2023/10/16 08:47:58;;;;;;;25.13;15.73;;;6.50;99.90;;;;;;5049891;28;20164;-75
2023/10/16 08:50:52;;;;;;;23.10;15.00;;;6.50;99.90;;;;;;5051766;28;20726;-74
2023/10/16 08:53:30;;;;;;;26.63;17.07;;;6.60;99.90;;;;;;5054257;28;20226;-74
2023/10/16 08:56:07;;;;;;;25.33;15.93;;;6.70;99.90;;;;;;5054571;28;20626;-75
2023/10/16 08:58:46;;;;;;;22.13;15.93;;;6.70;99.90;;;;;;5054542;28;20525;-75
2023/10/16 09:01:16;;;;;;;23.57;16.53;;;6.80;99.90;;;;;;5052762;28;20215;-74
2023/10/16 09:03:44;;;;;;;24.13;16.20;;;6.80;99.90;;;;;;5054154;28;20199;-74
2023/10/16 09:06:13;;;;;;;23.03;16.00;;;6.80;99.90;;;;;;5054223;28;20172;-75
2023/10/16 09:08:41;;;;;;;22.07;15.30;;;6.90;99.90;;;;;;5054329;28;20191;-75
2023/10/16 09:11:07;;;;;;;22.13;15.30;;;6.90;99.90;;;;;;5052959;28;20572;-74
2023/10/16 09:13:36;;;;;;;20.40;16.70;;;6.90;99.90;;;;;;5054097;28;20196;-75
2023/10/16 09:16:11;;;;;;;23.00;15.70;;;7.00;99.90;;;;;;5052658;28;20190;-74
2023/10/16 09:18:40;;;;;;;19.63;14.57;;;7.00;99.90;;;;;;5054144;28;20631;-74
2023/10/16 09:21:13;;;;;;;27.03;16.83;;;7.10;99.90;;;;;;5046729;28;20191;-75
2023/10/16 09:23:40;;;;;;;20.03;15.73;;;7.10;99.90;;;;;;5033905;28;20204;-75
2023/10/16 09:26:07;;;;;;;19.50;16.03;;;7.20;99.90;;;;;;5034235;28;20176;-74
2023/10/16 09:28:33;;;;;;;20.33;15.23;;;7.20;99.90;;;;;;5032448;28;20668;-75
2023/10/16 09:31:02;;;;;;;22.60;15.60;;;7.30;99.90;;;;;;5036428;28;20635;-74
2023/10/16 09:33:31;;;;;;;21.13;16.10;;;7.40;99.90;;;;;;5053516;28;20192;-74
2023/10/16 09:36:01;;;;;;;24.73;16.63;;;7.50;99.90;;;;;;5053867;28;20164;-75
2023/10/16 09:38:33;;;;;;;24.53;16.40;;;7.50;99.90;;;;;;5052212;28;20180;-74
2023/10/16 09:43:56;;;;;;;29.20;16.80;;;7.70;99.90;;;;;;5053259;28;20217;-74
2023/10/16 09:46:52;;;;;;;17.40;14.57;;;7.80;99.90;;;;;;5051911;28;20163;-74
2023/10/16 09:49:21;;;;;;;19.37;14.37;;;7.80;99.90;;;;;;5053486;28;20168;-74
2023/10/16 09:51:48;;;;;;;19.47;14.90;;;7.90;99.90;;;;;;5052037;28;20620;-74
2023/10/16 09:54:14;;;;;;;21.90;14.57;;;7.90;99.90;;;;;;5051798;28;20180;-74
2023/10/16 09:56:44;;;;;;;21.10;14.20;;;8.00;99.90;;;;;;5053351;28;20284;-76
2023/10/16 09:59:33;;;;;;;19.83;13.37;;;8.10;99.90;;;;;;5051663;28;20707;-74
2023/10/16 10:02:09;;;;;;;19.33;12.00;;;8.10;99.90;;;;;;5040207;28;20199;-75
2023/10/16 10:04:43;;;;;;;16.10;11.87;;;8.20;99.90;;;;;;5031852;28;20175;-77
2023/10/16 10:07:19;;;;;;;18.80;11.97;;;8.20;99.90;;;;;;5033525;28;20575;-77
2023/10/16 10:09:48;;;;;;;19.53;12.43;;;8.30;99.90;;;;;;5031731;28;20656;-73
2023/10/16 10:12:42;;;;;;;17.10;11.90;;;8.30;99.90;;;;;;5043626;28;20199;-74
2023/10/16 10:15:26;;;;;;;22.63;12.43;;;8.40;99.90;;;;;;5052924;28;20144;-74
2023/10/16 10:17:54;;;;;;;14.83;10.93;;;8.50;99.90;;;;;;5051680;28;20175;-74
2023/10/16 10:20:25;;;;;;;16.83;10.17;;;8.50;99.90;;;;;;5051508;28;20282;-74
2023/10/16 10:23:04;;;;;;;14.67;10.87;;;8.60;99.90;;;;;;5050558;28;20207;-74
2023/10/16 10:25:37;;;;;;;12.70;9.33;;;8.70;99.90;;;;;;5052666;28;20158;-74
2023/10/16 10:28:11;;;;;;;14.10;9.80;;;8.80;99.90;;;;;;5052724;28;20655;-74
2023/10/16 10:30:43;;;;;;;14.83;9.87;;;8.90;99.90;;;;;;5052502;28;20187;-75
2023/10/16 10:33:11;;;;;;;18.90;10.33;;;8.90;99.90;;;;;;5050398;28;20229;-74
2023/10/16 10:35:40;;;;;;;17.13;10.13;;;9.10;99.90;;;;;;5051574;28;20178;-75
2023/10/16 10:38:20;;;;;;;14.97;10.13;;;9.20;99.90;;;;;;5051139;28;20180;-75
2023/10/16 10:41:06;;;;;;;20.47;9.60;;;9.30;99.90;;;;;;5052824;28;20159;-77
2023/10/16 10:43:50;;;;;;;18.23;8.97;;;9.30;99.90;;;;;;5048282;28;20245;-75
2023/10/16 10:46:22;;;;;;;19.67;9.83;;;9.40;99.90;;;;;;5052326;28;20156;-75
2023/10/16 10:48:48;;;;;;;15.60;8.60;;;9.60;99.90;;;;;;5052785;28;20159;-77
2023/10/16 10:51:16;;;;;;;15.27;8.90;;;9.60;99.90;;;;;;5051275;28;20185;-75
2023/10/16 10:53:58;;;;;;;15.70;8.27;;;9.70;99.90;;;;;;5050941;28;20196;-75
2023/10/16 10:56:39;;;;;;;13.40;9.17;;;9.70;99.90;;;;;;5050916;28;20225;-75
2023/10/16 10:59:10;;;;;;;12.23;8.57;;;9.80;99.90;;;;;;5051410;28;20198;-75
2023/10/16 11:02:08;;;;;;;16.80;8.80;;;9.90;99.90;;;;;;5044833;28;20184;-77
2023/10/16 11:04:34;;;;;;;17.73;7.50;;;9.90;99.90;;;;;;5030892;28;20241;-76
2023/10/16 11:07:11;;;;;;;13.60;7.27;;;10.00;99.90;;;;;;5032147;28;20168;-74
2023/10/16 11:09:42;;;;;;;13.30;8.27;;;10.10;99.90;;;;;;5030894;28;20643;-75
2023/10/16 11:12:08;;;;;;;14.93;8.20;;;10.20;99.90;;;;;;5036886;28;20195;-76
2023/10/16 11:14:38;;;;;;;13.23;7.90;;;10.30;99.90;;;;;;5050791;28;20271;-75
2023/10/16 11:17:07;;;;;;;12.23;7.40;;;10.40;99.90;;;;;;5052318;28;20160;-75
2023/10/16 11:19:49;;;;;;;14.50;7.23;;;10.50;99.90;;;;;;5050806;28;20186;-75
2023/10/16 11:22:27;;;;;;;10.50;6.90;;;10.60;99.90;;;;;;5043111;28;20230;-75
2023/10/16 11:24:53;;;;;;;11.17;6.50;;;10.60;99.90;;;;;;5030934;28;20183;-76
2023/10/16 11:27:19;;;;;;;11.70;7.17;;;10.60;99.90;;;;;;5030718;28;20187;-76
2023/10/16 11:29:52;;;;;;;11.17;6.03;;;10.60;99.90;;;;;;5032216;28;20189;-76
2023/10/16 11:32:23;;;;;;;12.57;6.70;;;10.60;99.90;;;;;;5037158;28;20212;-76
2023/10/16 11:34:59;;;;;;;16.20;6.47;;;10.70;99.90;;;;;;5047164;28;20242;-76
2023/10/16 11:37:25;;;;;;;14.83;6.50;;;10.70;99.90;;;;;;5030763;28;20164;-76
2023/10/16 11:39:54;;;;;;;11.43;5.97;;;10.70;1.00;;;;;;5039978;28;20188;-76
2023/10/16 11:42:20;;;;;;;11.43;5.40;;;10.70;1.00;;;;;;5032344;28;20672;-75
2023/10/16 11:44:51;;;;;;;13.40;6.37;;;10.80;1.00;;;;;;5047187;28;20204;-75
2023/10/16 11:47:18;;;;;;;10.93;6.20;;;10.80;99.90;;;;;;5032108;28;20153;-76
2023/10/16 11:49:57;;;;;;;11.47;5.97;;;10.80;99.90;;;;;;5032135;28;20179;-75
2023/10/16 11:52:27;;;;;;;11.83;6.27;;;10.90;1.00;;;;;;5049749;28;20215;-75
2023/10/16 11:54:57;;;;;;;9.57;6.00;;;10.90;1.00;;;;;;5051834;28;20175;-75
2023/10/16 11:57:24;;;;;;;13.00;5.77;;;10.90;18.40;;;;;;5037127;28;20609;-76
2023/10/16 11:59:52;;;;;;;9.10;5.87;;;10.90;99.90;;;;;;5031829;28;20176;-76
2023/10/16 12:02:19;;;;;;;12.97;6.80;;;10.90;1.00;;;;;;5031885;28;20201;-76
2023/10/16 12:04:46;;;;;;;11.47;6.97;;;10.90;99.90;;;;;;5031242;28;20267;-75
2023/10/16 12:07:13;;;;;;;13.67;7.50;;;11.00;1.00;;;;;;5044290;28;20176;-76
2023/10/16 12:09:47;;;;;;;11.00;7.00;;;11.00;1.00;;;;;;5051874;28;20168;-76
2023/10/16 12:12:20;;;;;;;10.20;6.47;;;11.00;1.00;;;;;;5054539;28;20207;-75
2023/10/16 12:14:49;;;;;;;21.70;7.60;;;11.00;1.00;;;;;;5055185;28;20148;-76
2023/10/16 12:17:19;;;;;;;14.63;7.30;;;11.10;1.00;;;;;;5054172;28;20611;-76
2023/10/16 12:19:45;;;;;;;12.87;6.63;;;11.10;1.00;;;;;;5054977;28;20171;-76
2023/10/16 12:22:15;;;;;;;12.00;7.10;;;11.10;41.80;;;;;;5053659;28;20192;-76
2023/10/16 12:24:43;;;;;;;10.37;6.33;;;11.10;99.90;;;;;;5053753;28;20208;-76
2023/10/16 12:27:10;;;;;;;14.20;7.83;;;11.20;1.00;;;;;;5053779;28;20662;-76
2023/10/16 12:29:36;;;;;;;16.03;7.73;;;11.10;1.00;;;;;;5053521;28;20225;-76
2023/10/16 12:32:03;;;;;;;12.63;6.87;;;11.30;1.00;;;;;;5053521;28;20179;-76
2023/10/16 12:34:32;;;;;;;11.43;6.47;;;11.40;1.00;;;;;;5053422;28;20189;-76
2023/10/16 12:36:58;;;;;;;8.17;5.87;;;11.40;1.00;;;;;;5053101;28;20179;-76
2023/10/16 12:39:28;;;;;;;11.10;6.63;;;11.50;99.40;;;;;;5053863;28;20182;-75
2023/10/16 12:42:01;;;;;;;9.63;5.73;;;11.50;59.20;;;;;;5052756;28;20187;-76
2023/10/16 12:44:27;;;;;;;7.90;5.07;;;11.60;1.00;;;;;;5054817;28;20210;-76
2023/10/16 12:46:53;;;;;;;9.07;5.33;;;11.60;1.00;;;;;;5053346;28;20643;-77
2023/10/16 12:49:20;;;;;;;10.80;5.10;;;11.60;99.90;;;;;;5054631;28;20563;-77
2023/10/16 12:51:46;;;;;;;9.37;5.17;;;11.60;99.90;;;;;;5053304;28;20264;-76
2023/10/16 12:54:12;;;;;;;10.93;5.53;;;11.70;99.90;;;;;;5052593;28;20187;-75
2023/10/16 12:56:41;;;;;;;13.07;5.67;;;11.70;1.00;;;;;;5054567;28;20172;-76
2023/10/16 12:59:08;;;;;;;11.57;5.80;;;11.70;1.00;;;;;;5054446;28;20698;-77
2023/10/16 13:01:34;;;;;;;10.20;5.67;;;11.80;99.90;;;;;;5054161;28;20221;-76
2023/10/16 13:04:03;;;;;;;11.67;6.23;;;11.80;99.90;;;;;;5054223;28;20203;-75
2023/10/16 13:06:30;;;;;;;13.23;6.63;;;11.80;99.90;;;;;;5054505;28;20638;-75
2023/10/16 13:09:02;;;;;;;11.57;6.80;;;11.80;86.60;;;;;;5052983;28;20174;-76
2023/10/16 13:11:28;;;;;;;10.17;5.97;;;11.80;99.90;;;;;;5054156;28;20171;-76
2023/10/16 13:13:55;;;;;;;9.03;5.70;;;11.80;99.90;;;;;;5053969;28;20285;-75
2023/10/16 13:16:24;;;;;;;9.17;5.90;;;11.80;99.90;;;;;;5052650;28;20178;-76
2023/10/16 13:18:57;;;;;;;8.67;5.17;;;11.80;99.90;;;;;;5052563;28;20207;-75
2023/10/16 13:21:32;;;;;;;8.37;5.87;;;11.90;1.00;;;;;;5052108;28;20176;-76
2023/10/16 13:24:04;;;;;;;9.90;5.93;;;12.00;1.00;;;;;;5052344;28;20198;-76
2023/10/16 13:26:31;;;;;;;10.50;5.27;;;12.00;91.40;;;;;;5053792;28;20156;-75
2023/10/16 13:28:57;;;;;;;9.30;4.97;;;12.00;99.90;;;;;;5053700;28;20159;-76
2023/10/16 13:31:23;;;;;;;10.13;5.30;;;12.10;54.70;;;;;;5052374;28;20562;-76
2023/10/16 13:33:50;;;;;;;13.23;5.30;;;12.10;99.90;;;;;;5052371;28;20223;-76
2023/10/16 13:36:17;;;;;;;9.20;5.20;;;12.10;96.90;;;;;;5053533;28;20175;-75
2023/10/16 13:38:44;;;;;;;10.80;4.57;;;12.10;99.90;;;;;;5053858;28;20175;-75
2023/10/16 13:41:20;;;;;;;6.10;4.50;;;12.10;99.90;;;;;;5053481;28;20199;-75
2023/10/16 13:43:46;;;;;;;13.33;5.33;;;12.10;99.90;;;;;;5051880;28;20286;-76
2023/10/16 13:46:13;;;;;;;11.43;4.70;;;12.10;99.90;;;;;;5051960;28;20174;-75
2023/10/16 13:48:45;;;;;;;12.20;5.47;;;12.10;34.90;;;;;;5052054;28;20167;-75
2023/10/16 13:51:13;;;;;;;7.63;4.43;;;12.10;1.00;;;;;;5051948;28;20192;-75
2023/10/16 13:53:38;;;;;;;6.17;4.00;;;12.10;1.00;;;;;;5053378;28;20187;-76
2023/10/16 13:56:05;;;;;;;10.30;3.93;;;12.10;1.00;;;;;;5053294;28;20593;-75
2023/10/16 13:58:31;;;;;;;6.93;4.20;;;12.10;99.90;;;;;;5051872;28;20210;-75
2023/10/16 14:00:57;;;;;;;9.17;4.20;;;12.10;1.00;;;;;;5053042;28;20203;-75
2023/10/16 14:03:24;;;;;;;10.13;3.97;;;12.10;99.90;;;;;;5051612;28;20277;-76
2023/10/16 14:05:54;;;;;;;10.87;4.40;;;12.00;78.60;;;;;;5053083;28;20160;-77
2023/10/16 14:08:30;;;;;;;9.20;4.23;;;12.10;99.90;;;;;;5053112;28;20651;-76
2023/10/16 14:11:00;;;;;;;8.93;3.87;;;12.10;1.00;;;;;;5052819;28;20147;-75
2023/10/16 14:13:32;;;;;;;7.27;4.47;;;12.20;1.00;;;;;;5052905;28;20195;-77
2023/10/16 14:16:20;;;;;;;8.93;4.00;;;12.10;99.90;;;;;;5052104;28;20546;-76
2023/10/16 14:18:44;;;;;;;8.73;4.60;;;12.20;15.40;;;;;;5052979;28;20287;-79
2023/10/16 14:21:11;;;;;;;6.80;4.50;;;12.20;57.50;;;;;;5053274;28;20191;-76
2023/10/16 14:23:40;;;;;;;12.50;5.43;;;12.20;91.10;;;;;;5052794;28;20290;-74
2023/10/16 14:26:22;;;;;;;9.33;5.40;;;12.20;1.00;;;;;;5052993;28;20171;-77
2023/10/16 14:28:59;;;;;;;11.67;5.27;;;12.30;1.00;;;;;;5051850;28;20263;-74
2023/10/16 14:31:28;;;;;;;9.27;5.10;;;12.30;99.90;;;;;;5051110;28;20183;-76
2023/10/16 14:33:53;;;;;;;8.70;4.87;;;12.20;1.00;;;;;;5051792;28;20519;-76
2023/10/16 14:36:24;;;;;;;7.30;4.63;;;12.30;1.00;;;;;;5052821;28;20172;-75
2023/10/16 14:38:51;;;;;;;10.33;5.23;;;12.30;99.90;;;;;;5051382;28;20176;-75
2023/10/16 14:41:17;;;;;;;9.63;4.70;;;12.30;99.90;;;;;;5052531;28;20180;-75
2023/10/16 14:43:46;;;;;;;11.17;4.77;;;12.30;99.90;;;;;;5052628;28;20199;-76
2023/10/16 14:46:12;;;;;;;9.80;4.40;;;12.30;1.00;;;;;;5051859;28;20628;-75
2023/10/16 14:48:38;;;;;;;11.27;5.30;;;12.30;1.00;;;;;;5051217;28;20171;-75
2023/10/16 14:51:04;;;;;;;9.30;4.93;;;12.30;1.00;;;;;;5052258;28;20183;-74
2023/10/16 14:53:31;;;;;;;7.17;4.63;;;12.20;99.90;;;;;;5052505;28;20191;-74